Time;durP1;ratioP1;P1;durP2;ratioP2;P2;SDS_P1;SDS_P2;PMS_P1;PMS_P2;Temp;Humidity;BMP_temperature;BMP_pressure;BME280_temperature;BME280_humidity;BME280_pressure;Samples;Min_cycle;Max_cycle;Signal;HPM_P1;HPM_P2
2022/06/18 00:00:57;;;;;;;3.88;2.58;;;;;;;;;;5091176;28;20358;-71
2022/06/18 00:03:32;;;;;;;3.67;2.30;;;;;;;;;;5091082;28;20040;-71
2022/06/18 00:05:58;;;;;;;5.15;2.50;;;;;;;;;;5107093;28;20496;-72
2022/06/18 00:08:26;;;;;;;4.28;2.53;;;;;;;;;;5084371;28;20024;-71
2022/06/18 00:13:44;;;;;;;3.25;2.40;;;;;;;;;;5084944;28;20094;-71
2022/06/18 00:16:14;;;;;;;8.60;2.58;;;;;;;;;;5092629;28;20053;-72
2022/06/18 00:18:41;;;;;;;5.53;2.47;;;;;;;;;;5086022;28;20085;-73
2022/06/18 00:21:08;;;;;;;6.72;2.60;;;;;;;;;;5103457;28;20070;-72
2022/06/18 00:23:37;;;;;;;4.93;2.40;;;;;;;;;;5089943;28;20036;-71
2022/06/18 00:26:03;;;;;;;9.23;2.65;;;;;;;;;;5087738;28;20020;-72
2022/06/18 00:28:31;;;;;;;15.57;3.00;;;;;;;;;;5092900;28;20035;-71
2022/06/18 00:31:04;;;;;;;6.97;2.60;;;;;;;;;;5089748;28;20028;-72
2022/06/18 00:33:30;;;;;;;5.35;3.10;;;;;;;;;;5091262;28;20123;-71
2022/06/18 00:36:00;;;;;;;7.22;2.83;;;;;;;;;;5089727;28;20111;-71
2022/06/18 00:38:27;;;;;;;8.65;2.92;;;;;;;;;;5098508;28;20028;-71
2022/06/18 00:40:54;;;;;;;7.00;2.85;;;;;;;;;;5099262;28;20111;-71
2022/06/18 00:43:39;;;;;;;6.70;2.90;;;;;;;;;;5096471;28;20386;-72
2022/06/18 00:46:13;;;;;;;5.28;2.63;;;;;;;;;;5085048;28;20450;-71
2022/06/18 00:48:44;;;;;;;6.38;2.58;;;;;;;;;;5091945;28;20069;-71
2022/06/18 00:51:13;;;;;;;4.07;2.78;;;;;;;;;;5081526;28;20474;-71
2022/06/18 00:53:48;;;;;;;8.02;3.13;;;;;;;;;;5073870;28;20362;-71
2022/06/18 00:56:19;;;;;;;4.82;2.95;;;;;;;;;;5098269;28;20026;-71
2022/06/18 00:58:55;;;;;;;5.60;2.80;;;;;;;;;;5097016;28;20032;-70
2022/06/18 01:01:26;;;;;;;6.18;3.03;;;;;;;;;;5084218;28;20024;-70
2022/06/18 01:03:55;;;;;;;5.25;2.80;;;;;;;;;;5092883;28;20032;-72
2022/06/18 01:06:32;;;;;;;5.82;2.92;;;;;;;;;;5091418;28;20522;-71
2022/06/18 01:09:00;;;;;;;6.68;2.80;;;;;;;;;;5093337;28;20035;-71
2022/06/18 01:11:28;;;;;;;6.57;3.42;;;;;;;;;;5086299;28;20393;-71
2022/06/18 01:13:56;;;;;;;5.45;3.00;;;;;;;;;;5091258;28;20024;-71
2022/06/18 01:16:23;;;;;;;4.32;2.80;;;;;;;;;;5088647;28;20435;-71
2022/06/18 01:18:50;;;;;;;5.93;3.08;;;;;;;;;;5091915;28;20017;-71
2022/06/18 01:21:34;;;;;;;5.40;2.95;;;;;;;;;;5090422;28;20432;-71
2022/06/18 01:24:12;;;;;;;4.88;2.92;;;;;;;;;;5075598;28;20115;-71
2022/06/18 01:26:38;;;;;;;6.35;3.30;;;;;;;;;;5106533;28;20028;-71
2022/06/18 01:29:04;;;;;;;6.72;3.20;;;;;;;;;;5091872;28;20016;-72
2022/06/18 01:31:31;;;;;;;5.55;3.17;;;;;;;;;;5100619;28;20023;-71
2022/06/18 01:33:58;;;;;;;4.95;2.67;;;;;;;;;;5094935;28;20089;-71
2022/06/18 01:36:25;;;;;;;6.47;2.95;;;;;;;;;;5092985;28;20035;-71
2022/06/18 01:38:51;;;;;;;5.88;2.90;;;;;;;;;;5092136;28;20089;-71
2022/06/18 01:44:07;;;;;;;7.53;2.90;;;;;;;;;;5084627;28;20614;-71
2022/06/18 01:46:34;;;;;;;4.82;2.90;;;;;;;;;;5094765;28;20028;-72
2022/06/18 01:49:02;;;;;;;6.28;2.83;;;;;;;;;;5092568;28;20020;-71
2022/06/18 01:51:36;;;;;;;8.38;3.05;;;;;;;;;;5095089;28;20193;-71
2022/06/18 01:54:06;;;;;;;8.65;3.38;;;;;;;;;;5088574;28;20044;-72
2022/06/18 01:56:35;;;;;;;4.90;3.03;;;;;;;;;;5111461;28;20024;-71
2022/06/18 01:59:08;;;;;;;5.53;2.85;;;;;;;;;;5093367;28;20103;-71
2022/06/18 02:01:38;;;;;;;10.95;3.28;;;;;;;;;;5089959;28;20032;-71
2022/06/18 02:04:04;;;;;;;5.30;3.10;;;;;;;;;;5093759;28;20051;-71
2022/06/18 02:06:32;;;;;;;6.32;3.05;;;;;;;;;;5093625;28;20016;-71
2022/06/18 02:09:00;;;;;;;5.55;3.15;;;;;;;;;;5093487;28;20032;-72
2022/06/18 02:11:26;;;;;;;5.00;3.00;;;;;;;;;;5093313;28;20114;-71
2022/06/18 02:14:14;;;;;;;;;;;;;;;;;;;;;
2022/06/18 02:16:42;;;;;;;8.18;3.00;;;;;;;;;;5094953;28;20032;-71
2022/06/18 02:19:18;;;;;;;5.55;3.00;;;;;;;;;;5094898;28;20020;-70
2022/06/18 02:21:46;;;;;;;5.70;3.03;;;;;;;;;;5096021;28;20063;-71
2022/06/18 02:24:12;;;;;;;5.18;3.20;;;;;;;;;;5094106;28;20066;-72
2022/06/18 02:26:40;;;;;;;8.95;3.20;;;;;;;;;;5100704;28;20019;-71
2022/06/18 02:29:10;;;;;;;6.85;3.05;;;;;;;;;;5102010;28;20118;-72
2022/06/18 02:31:38;;;;;;;21.05;3.83;;;;;;;;;;5094289;28;20024;-72
2022/06/18 02:34:09;;;;;;;10.38;3.08;;;;;;;;;;5093382;28;20036;-72
2022/06/18 02:36:36;;;;;;;10.77;3.42;;;;;;;;;;5096474;28;20028;-71
2022/06/18 02:39:08;;;;;;;6.15;3.40;;;;;;;;;;5076425;28;20016;-71
2022/06/18 02:41:35;;;;;;;6.93;3.20;;;;;;;;;;5103140;27;20024;-71
2022/06/18 02:44:02;;;;;;;4.88;3.03;;;;;;;;;;5092860;28;20050;-71
2022/06/18 02:46:28;;;;;;;10.93;3.60;;;;;;;;;;5093326;28;20066;-71
2022/06/18 02:49:14;;;;;;;6.68;3.53;;;;;;;;;;5092852;28;20035;-71
2022/06/18 02:51:40;;;;;;;10.55;3.42;;;;;;;;;;5092658;28;20509;-72
2022/06/18 02:54:17;;;;;;;6.78;3.28;;;;;;;;;;5093014;28;20392;-72
2022/06/18 02:57:15;;;;;;;;;;;;;;;;;;;;;
2022/06/18 02:59:41;;;;;;;7.38;3.45;;;;;;;;;;5082184;28;20503;-72
2022/06/18 03:02:18;;;;;;;4.40;3.00;;;;;;;;;;5092921;28;20062;-71
2022/06/18 03:04:44;;;;;;;5.88;3.08;;;;;;;;;;5092981;28;20051;-72
2022/06/18 03:07:10;;;;;;;4.72;3.28;;;;;;;;;;5092507;28;20020;-72
2022/06/18 03:12:06;;;;;;;9.95;4.10;;;;;;;;;;5094014;28;20035;-72
2022/06/18 03:12:24;;;;;;;9.52;4.05;;;;;;;;;;5094171;28;20496;-71
2022/06/18 03:15:01;;;;;;;7.00;3.60;;;;;;;;;;5075408;28;20526;-71
2022/06/18 03:17:36;;;;;;;7.35;3.70;;;;;;;;;;5092878;28;20078;-72
2022/06/18 03:20:09;;;;;;;10.05;3.40;;;;;;;;;;5092981;28;20032;-72
2022/06/18 03:22:44;;;;;;;6.77;3.30;;;;;;;;;;5078551;28;20122;-72
2022/06/18 03:25:16;;;;;;;8.43;3.40;;;;;;;;;;5069421;28;20067;-71
2022/06/18 03:27:42;;;;;;;10.20;3.88;;;;;;;;;;5074263;28;20024;-71
2022/06/18 03:30:08;;;;;;;5.65;3.65;;;;;;;;;;5090241;28;20047;-71
2022/06/18 03:32:34;;;;;;;8.98;3.63;;;;;;;;;;5097482;28;20043;-71
2022/06/18 03:35:00;;;;;;;10.52;4.22;;;;;;;;;;5109023;28;20036;-71
2022/06/18 03:37:26;;;;;;;8.52;4.40;;;;;;;;;;5110707;28;20493;-71
2022/06/18 03:39:52;;;;;;;6.57;3.90;;;;;;;;;;5111134;28;20385;-71
2022/06/18 03:42:18;;;;;;;9.02;4.20;;;;;;;;;;5111212;28;20032;-71
2022/06/18 03:44:44;;;;;;;7.75;4.63;;;;;;;;;;5108082;28;20142;-71
2022/06/18 03:47:10;;;;;;;10.60;4.30;;;;;;;;;;5092023;28;20020;-71
2022/06/18 03:49:37;;;;;;;7.75;3.72;;;;;;;;;;5091433;28;20055;-71
2022/06/18 03:52:05;;;;;;;8.57;3.42;;;;;;;;;;5108421;28;20024;-71
2022/06/18 03:54:31;;;;;;;7.10;3.50;;;;;;;;;;5092275;28;20086;-72
2022/06/18 03:56:57;;;;;;;9.75;3.97;;;;;;;;;;5090753;28;20024;-72
2022/06/18 03:59:23;;;;;;;9.02;3.80;;;;;;;;;;5090775;28;20082;-71
2022/06/18 04:01:50;;;;;;;8.90;3.60;;;;;;;;;;5094798;28;20038;-72
2022/06/18 04:04:16;;;;;;;13.90;3.92;;;;;;;;;;5092608;28;20039;-71
2022/06/18 04:06:42;;;;;;;9.70;3.72;;;;;;;;;;5090207;28;20020;-70
2022/06/18 04:09:09;;;;;;;14.02;4.35;;;;;;;;;;5091447;28;20042;-71
2022/06/18 04:11:35;;;;;;;13.77;4.40;;;;;;;;;;5092397;28;20061;-72
2022/06/18 04:14:03;;;;;;;7.20;4.15;;;;;;;;;;5111839;28;20032;-72
2022/06/18 04:16:29;;;;;;;13.52;4.30;;;;;;;;;;5111442;28;20019;-71
2022/06/18 04:19:17;;;;;;;8.77;4.10;;;;;;;;;;5103830;28;20392;-72
2022/06/18 04:21:43;;;;;;;6.78;4.25;;;;;;;;;;5109108;27;20031;-71
2022/06/18 04:24:09;;;;;;;9.60;3.92;;;;;;;;;;5111023;28;20130;-71
2022/06/18 04:26:36;;;;;;;5.93;3.50;;;;;;;;;;5108089;28;20019;-71
2022/06/18 04:29:02;;;;;;;7.43;3.80;;;;;;;;;;5110751;28;20106;-71
2022/06/18 04:31:28;;;;;;;11.00;4.10;;;;;;;;;;5125796;28;20472;-70
2022/06/18 04:33:54;;;;;;;8.00;4.03;;;;;;;;;;5076486;28;20470;-71
2022/06/18 04:36:29;;;;;;;11.60;4.18;;;;;;;;;;5071725;28;20428;-70
2022/06/18 04:38:55;;;;;;;7.65;3.92;;;;;;;;;;5071856;28;20028;-71
2022/06/18 04:41:21;;;;;;;8.30;4.03;;;;;;;;;;5070998;28;20527;-70
2022/06/18 04:44:03;;;;;;;;;;;;;;;;;;;;;
2022/06/18 04:46:33;;;;;;;7.72;4.03;;;;;;;;;;5067617;28;20043;-71
2022/06/18 04:49:01;;;;;;;6.55;3.92;;;;;;;;;;5058261;28;20036;-70
2022/06/18 04:51:32;;;;;;;8.35;4.05;;;;;;;;;;5070710;28;20075;-70
2022/06/18 04:53:58;;;;;;;7.57;4.53;;;;;;;;;;5072951;28;20034;-70
2022/06/18 04:56:24;;;;;;;10.32;4.30;;;;;;;;;;5065699;28;20031;-70
2022/06/18 04:58:50;;;;;;;9.02;4.20;;;;;;;;;;5069574;28;20024;-72
2022/06/18 05:01:18;;;;;;;8.93;4.20;;;;;;;;;;5069307;28;20538;-74
2022/06/18 05:03:44;;;;;;;7.97;4.18;;;;;;;;;;5067890;28;20048;-72
2022/06/18 05:06:17;;;;;;;21.27;4.22;;;;;;;;;;5073724;28;20024;-73
2022/06/18 05:08:43;;;;;;;7.72;4.10;;;;;;;;;;5055246;28;20071;-72
2022/06/18 05:11:14;;;;;;;7.03;4.20;;;;;;;;;;5075038;28;20048;-71
2022/06/18 05:13:40;;;;;;;8.70;4.38;;;;;;;;;;5094478;28;20032;-72
2022/06/18 05:16:07;;;;;;;9.27;4.07;;;;;;;;;;5076796;28;20028;-71
2022/06/18 05:18:34;;;;;;;6.40;3.67;;;;;;;;;;5074512;28;20138;-72
2022/06/18 05:21:00;;;;;;;14.15;4.18;;;;;;;;;;5073806;28;20029;-70
2022/06/18 05:23:27;;;;;;;14.18;3.90;;;;;;;;;;5072677;28;20040;-71
2022/06/18 05:25:56;;;;;;;11.95;4.75;;;;;;;;;;5074509;28;20473;-73
2022/06/18 05:28:22;;;;;;;5.60;3.88;;;;;;;;;;5075181;28;20043;-73
2022/06/18 05:30:48;;;;;;;7.13;4.07;;;;;;;;;;5062937;28;20024;-72
2022/06/18 05:33:14;;;;;;;7.22;3.90;;;;;;;;;;5072101;28;20045;-72
2022/06/18 05:35:42;;;;;;;7.00;4.07;;;;;;;;;;5072201;28;20033;-72
2022/06/18 05:38:12;;;;;;;5.85;3.70;;;;;;;;;;5074854;28;20021;-70
2022/06/18 05:40:39;;;;;;;8.45;3.80;;;;;;;;;;5072664;28;20078;-71
2022/06/18 05:43:05;;;;;;;8.77;5.88;;;;;;;;;;5072512;28;20038;-69
2022/06/18 05:45:31;;;;;;;5.85;3.70;;;;;;;;;;5073493;28;20478;-70
2022/06/18 05:47:57;;;;;;;7.38;3.50;;;;;;;;;;5070317;28;20028;-72
2022/06/18 05:50:23;;;;;;;6.85;3.58;;;;;;;;;;5073253;28;20362;-73
2022/06/18 05:52:49;;;;;;;12.15;4.38;;;;;;;;;;5075277;28;20044;-70
2022/06/18 05:55:15;;;;;;;9.60;3.88;;;;;;;;;;5075324;28;20029;-70
2022/06/18 05:57:45;;;;;;;8.43;3.85;;;;;;;;;;5074960;28;20100;-72
2022/06/18 06:00:13;;;;;;;9.30;3.83;;;;;;;;;;5075270;28;20021;-71
2022/06/18 06:02:39;;;;;;;10.15;4.20;;;;;;;;;;5056957;28;20048;-72
2022/06/18 06:05:05;;;;;;;8.63;4.25;;;;;;;;;;5075296;28;20032;-72
2022/06/18 06:07:31;;;;;;;5.50;4.05;;;;;;;;;;5071123;28;20098;-71
2022/06/18 06:12:42;;;;;;;9.20;4.22;;;;;;;;;;5074272;28;20043;-71
2022/06/18 06:15:10;;;;;;;9.25;3.95;;;;;;;;;;5074319;28;20032;-73
2022/06/18 06:17:36;;;;;;;7.13;4.10;;;;;;;;;;5080701;28;20111;-73
2022/06/18 06:20:04;;;;;;;7.50;3.90;;;;;;;;;;5086071;28;20055;-73
2022/06/18 06:22:30;;;;;;;13.05;4.40;;;;;;;;;;5073838;28;20032;-71
2022/06/18 06:24:56;;;;;;;11.13;4.40;;;;;;;;;;5074066;28;20052;-72
2022/06/18 06:27:23;;;;;;;11.32;4.57;;;;;;;;;;5074943;28;20028;-70
2022/06/18 06:29:49;;;;;;;8.32;4.38;;;;;;;;;;5075475;28;20485;-71
2022/06/18 06:32:15;;;;;;;7.43;4.10;;;;;;;;;;5091073;28;20044;-70
2022/06/18 06:34:41;;;;;;;10.32;4.00;;;;;;;;;;5093686;28;20127;-71
2022/06/18 06:37:07;;;;;;;7.03;3.80;;;;;;;;;;5094266;28;20032;-71
2022/06/18 06:39:33;;;;;;;6.97;4.10;;;;;;;;;;5105910;28;20015;-72
2022/06/18 06:41:59;;;;;;;7.13;4.50;;;;;;;;;;5097072;28;20067;-72
2022/06/18 06:44:25;;;;;;;8.98;4.38;;;;;;;;;;5093685;28;20028;-71
2022/06/18 06:46:52;;;;;;;9.00;4.28;;;;;;;;;;5093635;28;20028;-72
2022/06/18 06:49:18;;;;;;;6.93;4.13;;;;;;;;;;5093429;28;20031;-70
2022/06/18 06:51:44;;;;;;;6.28;4.85;;;;;;;;;;5093528;28;20034;-72
2022/06/18 06:54:10;;;;;;;13.15;4.28;;;;;;;;;;5093446;28;20103;-71
2022/06/18 06:59:22;;;;;;;10.70;4.25;;;;;;;;;;5093192;28;20089;-72
2022/06/18 07:01:48;;;;;;;8.48;4.80;;;;;;;;;;5090841;28;20067;-73
2022/06/18 07:04:14;;;;;;;7.35;4.22;;;;;;;;;;5074956;28;20435;-72
2022/06/18 07:06:41;;;;;;;6.93;4.25;;;;;;;;;;5093499;28;20060;-72
2022/06/18 07:09:07;;;;;;;6.85;4.35;;;;;;;;;;5096737;28;20016;-73
2022/06/18 07:11:35;;;;;;;6.43;4.47;;;;;;;;;;5093426;28;20036;-71
2022/06/18 07:14:12;;;;;;;10.57;4.57;;;;;;;;;;5093089;28;20027;-73
2022/06/18 07:16:58;;;;;;;8.93;4.13;;;;;;;;;;5104344;27;20066;-73
2022/06/18 07:19:25;;;;;;;8.57;3.83;;;;;;;;;;5077003;28;20047;-73
2022/06/18 07:21:51;;;;;;;6.10;4.00;;;;;;;;;;5094066;28;20031;-70
2022/06/18 07:24:17;;;;;;;7.35;3.70;;;;;;;;;;5097971;28;20036;-72
2022/06/18 07:26:44;;;;;;;9.43;3.95;;;;;;;;;;5092214;28;20050;-72
2022/06/18 07:29:10;;;;;;;8.55;3.47;;;;;;;;;;5093329;28;20085;-73
2022/06/18 07:31:36;;;;;;;6.18;3.20;;;;;;;;;;5108316;28;20020;-72
2022/06/18 07:36:57;;;;;;;6.22;4.07;;;;;;;;;;5089559;28;20058;-72
2022/06/18 07:39:23;;;;;;;6.22;3.42;;;;;;;;;;5093253;28;20020;-73
2022/06/18 07:41:57;;;;;;;13.07;3.83;;;;;;;;;;5096036;28;20028;-73
2022/06/18 07:44:24;;;;;;;7.05;3.65;;;;;;;;;;5108478;28;20135;-72
2022/06/18 07:47:05;;;;;;;9.40;4.10;;;;;;;;;;5093013;28;20054;-71
2022/06/18 07:49:32;;;;;;;9.10;4.07;;;;;;;;;;5086961;28;20028;-71
2022/06/18 07:51:58;;;;;;;9.95;3.60;;;;;;;;;;5094233;28;20104;-71
2022/06/18 07:54:30;;;;;;;10.00;5.07;;;;;;;;;;5092651;28;20026;-73
2022/06/18 07:56:56;;;;;;;7.45;4.20;;;;;;;;;;5108648;28;20016;-70
2022/06/18 07:59:23;;;;;;;7.97;3.58;;;;;;;;;;5093295;28;20035;-72
2022/06/18 08:02:08;;;;;;;8.65;3.63;;;;;;;;;;5093172;28;20032;-70
2022/06/18 08:04:37;;;;;;;6.97;3.75;;;;;;;;;;5097530;28;20032;-72
2022/06/18 08:07:03;;;;;;;7.63;3.80;;;;;;;;;;5092211;28;20027;-70
2022/06/18 08:09:49;;;;;;;8.43;3.30;;;;;;;;;;5091816;28;20030;-71
2022/06/18 08:12:18;;;;;;;7.30;3.70;;;;;;;;;;5087426;28;20108;-70
2022/06/18 08:14:44;;;;;;;11.02;3.70;;;;;;;;;;5093435;28;20107;-70
2022/06/18 08:17:21;;;;;;;5.35;3.45;;;;;;;;;;5092117;28;20063;-73
2022/06/18 08:19:47;;;;;;;15.50;3.92;;;;;;;;;;5091122;28;20588;-70
2022/06/18 08:22:13;;;;;;;9.45;3.28;;;;;;;;;;5091811;28;20031;-72
2022/06/18 08:24:39;;;;;;;6.32;3.03;;;;;;;;;;5093265;28;20086;-72
2022/06/18 08:27:14;;;;;;;3.60;2.70;;;;;;;;;;5092148;28;20378;-73
2022/06/18 08:29:40;;;;;;;6.05;3.45;;;;;;;;;;5073635;28;20024;-72
2022/06/18 08:32:06;;;;;;;8.35;3.45;;;;;;;;;;5104776;28;20384;-71
2022/06/18 08:34:32;;;;;;;7.10;3.58;;;;;;;;;;5093120;28;20036;-73
2022/06/18 08:36:59;;;;;;;5.82;3.83;;;;;;;;;;5091999;28;20013;-70
2022/06/18 08:39:25;;;;;;;6.07;3.10;;;;;;;;;;5094711;28;20020;-73
2022/06/18 08:42:13;;;;;;;6.10;3.47;;;;;;;;;;5098142;28;20576;-72
2022/06/18 08:44:42;;;;;;;7.53;3.17;;;;;;;;;;5085578;28;20035;-72
2022/06/18 08:47:17;;;;;;;4.53;2.53;;;;;;;;;;5096031;28;20174;-71
2022/06/18 08:50:02;;;;;;;7.68;2.75;;;;;;;;;;5096247;28;20351;-73
2022/06/18 08:52:31;;;;;;;4.75;2.53;;;;;;;;;;5096713;28;20035;-72
2022/06/18 08:55:17;;;;;;;3.67;2.53;;;;;;;;;;5105144;28;20442;-73
2022/06/18 08:57:59;;;;;;;4.78;2.60;;;;;;;;;;5082327;28;20067;-71
2022/06/18 09:00:32;;;;;;;3.83;2.58;;;;;;;;;;5090708;28;20073;-70
2022/06/18 09:03:02;;;;;;;8.98;2.85;;;;;;;;;;5095736;28;20036;-73
2022/06/18 09:05:42;;;;;;;4.47;2.53;;;;;;;;;;5105900;28;20439;-72
2022/06/18 09:08:14;;;;;;;2.63;2.20;;;;;;;;;;5083871;28;20031;-70
2022/06/18 09:10:58;;;;;;;5.75;2.92;;;;;;;;;;5096585;28;20422;-72
2022/06/18 09:13:27;;;;;;;17.25;3.47;;;;;;;;;;5095595;28;20540;-70
2022/06/18 09:15:57;;;;;;;6.28;2.50;;;;;;;;;;5095094;28;20032;-72
2022/06/18 09:21:33;;;;;;;5.05;2.63;;;;;;;;;;5045603;28;20502;-72
2022/06/18 09:24:04;;;;;;;3.65;2.63;;;;;;;;;;5038144;28;20045;-72
2022/06/18 09:26:41;;;;;;;4.53;2.70;;;;;;;;;;5052134;28;20041;-73
2022/06/18 09:29:16;;;;;;;4.40;2.72;;;;;;;;;;5048710;28;20088;-70
2022/06/18 09:31:59;;;;;;;8.70;3.40;;;;;;;;;;5040951;28;20112;-70
2022/06/18 09:34:30;;;;;;;86.70;10.20;;;;;;;;;;5066589;28;20033;-70
2022/06/18 09:36:58;;;;;;;113.72;12.23;;;;;;;;;;5066896;28;20029;-73
2022/06/18 09:39:30;;;;;;;27.15;5.18;;;;;;;;;;5064093;28;20028;-72
2022/06/18 09:42:25;;;;;;;50.10;8.35;;;;;;;;;;5069619;28;20083;-72
2022/06/18 09:45:12;;;;;;;189.32;21.27;;;;;;;;;;5023695;28;20038;-71
2022/06/18 09:47:42;;;;;;;4.25;2.50;;;;;;;;;;5032057;28;20033;-71
2022/06/18 09:50:30;;;;;;;4.28;2.50;;;;;;;;;;5030921;28;20108;-73
2022/06/18 09:53:14;;;;;;;8.45;2.97;;;;;;;;;;5021317;28;20052;-70
2022/06/18 09:55:45;;;;;;;4.43;2.25;;;;;;;;;;5031494;28;20512;-72
2022/06/18 09:58:14;;;;;;;14.55;2.78;;;;;;;;;;5028779;28;20053;-71
2022/06/18 10:00:56;;;;;;;8.55;2.47;;;;;;;;;;5013546;28;20113;-72
2022/06/18 10:09:00;;;;;;;3.40;2.63;;;;;;;;;;5010927;28;20045;-81
2022/06/18 10:11:26;;;;;;;12.95;2.80;;;;;;;;;;5026969;28;20297;-78
2022/06/18 10:14:10;;;;;;;6.40;2.50;;;;;;;;;;5011248;28;20068;-74
2022/06/18 10:16:39;;;;;;;4.95;2.67;;;;;;;;;;5010126;28;20144;-73
2022/06/18 10:19:08;;;;;;;3.42;2.58;;;;;;;;;;5004889;28;20033;-74
2022/06/18 10:21:43;;;;;;;7.07;2.60;;;;;;;;;;5074233;28;20040;-70
2022/06/18 10:24:28;;;;;;;5.00;2.67;;;;;;;;;;5112788;28;20040;-73
2022/06/18 10:27:11;;;;;;;5.43;2.70;;;;;;;;;;5113556;28;20036;-72
2022/06/18 10:29:37;;;;;;;;;;;;;;;;;;5067588;28;20512;-72
2022/06/18 10:32:05;;;;;;;3.92;2.60;;;;;;;;;;5069382;28;19995;-71
2022/06/18 10:34:57;;;;;;;4.20;2.55;;;;;;;;;;5071783;28;20150;-71
2022/06/18 10:37:29;;;;;;;4.10;2.60;;;;;;;;;;5089734;28;22242;-74
2022/06/18 10:40:16;;;;;;;4.75;2.70;;;;;;;;;;5056979;28;20036;-73
2022/06/18 10:42:54;;;;;;;3.78;2.50;;;;;;;;;;4991215;28;20069;-74
2022/06/18 10:45:20;;;;;;;4.82;2.60;;;;;;;;;;4985018;28;20086;-74
2022/06/18 10:47:47;;;;;;;5.07;2.70;;;;;;;;;;4987293;28;20046;-74
2022/06/18 10:50:16;;;;;;;3.00;2.30;;;;;;;;;;4983005;28;20046;-72
2022/06/18 10:52:42;;;;;;;3.90;2.50;;;;;;;;;;4966698;28;20397;-72
2022/06/18 10:55:13;;;;;;;3.70;2.67;;;;;;;;;;5026704;28;20029;-71
2022/06/18 10:57:39;;;;;;;3.85;2.40;;;;;;;;;;5030427;28;20598;-74
2022/06/18 11:00:31;;;;;;;5.88;2.65;;;;;;;;;;5030150;28;20073;-71
2022/06/18 11:03:02;;;;;;;3.45;2.58;;;;;;;;;;5021354;28;20409;-72
2022/06/18 11:05:38;;;;;;;4.05;2.40;;;;;;;;;;5025257;28;20041;-72
2022/06/18 11:08:17;;;;;;;5.22;2.70;;;;;;;;;;5027932;28;20042;-72
2022/06/18 11:10:45;;;;;;;6.68;2.80;;;;;;;;;;5027059;28;20029;-72
2022/06/18 11:13:37;;;;;;;5.43;2.60;;;;;;;;;;5024748;28;20036;-75
2022/06/18 11:16:13;;;;;;;7.95;2.50;;;;;;;;;;5022572;28;20038;-75
2022/06/18 11:18:48;;;;;;;4.13;2.70;;;;;;;;;;5028465;28;20105;-76
2022/06/18 11:21:23;;;;;;;5.45;2.58;;;;;;;;;;5111403;27;20030;-75
2022/06/18 11:23:53;;;;;;;4.40;2.28;;;;;;;;;;5112701;27;20039;-74
2022/06/18 11:26:23;;;;;;;5.78;2.60;;;;;;;;;;5087573;28;20456;-75
2022/06/18 11:28:50;;;;;;;42.28;6.20;;;;;;;;;;5123290;27;20088;-78
2022/06/18 11:31:33;;;;;;;4.80;2.58;;;;;;;;;;5110749;27;20465;-76
2022/06/18 11:34:07;;;;;;;2.55;2.33;;;;;;;;;;5108348;27;20039;-76
2022/06/18 11:36:46;;;;;;;3.80;2.38;;;;;;;;;;5109036;28;20484;-72
2022/06/18 11:39:25;;;;;;;6.47;2.55;;;;;;;;;;5109864;27;20144;-73
2022/06/18 11:41:51;;;;;;;6.07;2.60;;;;;;;;;;5104588;27;20100;-72
2022/06/18 11:44:17;;;;;;;10.57;2.60;;;;;;;;;;5101001;27;20043;-70
2022/06/18 11:46:50;;;;;;;4.68;2.35;;;;;;;;;;5109291;28;20020;-71
2022/06/18 11:49:16;;;;;;;;;;;;;;;;;;5110849;28;20035;-75
2022/06/18 11:51:55;;;;;;;4.78;2.55;;;;;;;;;;5109014;28;19907;-75
2022/06/18 11:54:21;;;;;;;5.90;3.05;;;;;;;;;;5107362;28;20080;-74
2022/06/18 11:56:55;;;;;;;4.80;2.70;;;;;;;;;;5111001;27;20046;-73
2022/06/18 11:59:26;;;;;;;3.60;2.45;;;;;;;;;;5084765;28;20031;-73
2022/06/18 12:02:02;;;;;;;4.30;2.45;;;;;;;;;;5105373;28;20028;-73
2022/06/18 12:05:01;;;;;;;4.32;2.30;;;;;;;;;;5109860;28;20054;-72
2022/06/18 12:07:30;;;;;;;3.45;2.45;;;;;;;;;;5028649;28;20384;-72
2022/06/18 12:09:56;;;;;;;3.88;2.47;;;;;;;;;;5047961;28;20036;-72
2022/06/18 12:12:25;;;;;;;2.85;2.33;;;;;;;;;;5030791;28;20037;-72
2022/06/18 12:14:51;;;;;;;4.97;2.30;;;;;;;;;;5048626;28;20099;-73
2022/06/18 12:17:24;;;;;;;14.27;3.60;;;;;;;;;;5045155;28;20410;-74
2022/06/18 12:20:18;;;;;;;15.88;2.60;;;;;;;;;;5046569;28;20029;-72
2022/06/18 12:23:07;;;;;;;8.77;2.50;;;;;;;;;;5045183;28;20092;-76
2022/06/18 12:25:39;;;;;;;3.35;2.33;;;;;;;;;;5040472;28;20044;-74
2022/06/18 12:28:15;;;;;;;6.03;2.40;;;;;;;;;;5041260;28;20495;-75
2022/06/18 12:30:41;;;;;;;4.80;2.53;;;;;;;;;;5048230;28;20456;-74
2022/06/18 12:33:07;;;;;;;4.25;2.28;;;;;;;;;;5047984;28;20132;-74
2022/06/18 12:35:53;;;;;;;4.20;2.30;;;;;;;;;;5047959;28;20049;-70
2022/06/18 12:38:19;;;;;;;6.22;2.70;;;;;;;;;;5027485;28;20044;-76
2022/06/18 12:40:56;;;;;;;3.17;2.35;;;;;;;;;;5043729;28;20108;-71
2022/06/18 12:43:28;;;;;;;8.90;3.10;;;;;;;;;;5068520;28;20047;-72
2022/06/18 12:46:00;;;;;;;5.93;2.42;;;;;;;;;;5108249;28;20059;-73
2022/06/18 12:48:29;;;;;;;3.70;2.50;;;;;;;;;;5102924;28;20039;-72
2022/06/18 12:50:55;;;;;;;4.20;2.60;;;;;;;;;;5107114;28;20045;-75
2022/06/18 12:53:43;;;;;;;3.05;2.35;;;;;;;;;;5110031;28;20026;-79
2022/06/18 12:56:28;;;;;;;4.38;2.30;;;;;;;;;;5112363;28;20024;-76
2022/06/18 12:58:54;;;;;;;3.53;2.15;;;;;;;;;;5107195;28;20128;-77
2022/06/18 13:01:24;;;;;;;3.75;2.40;;;;;;;;;;5113186;28;20027;-80
2022/06/18 13:04:10;;;;;;;3.80;2.45;;;;;;;;;;5099488;28;20504;-75
2022/06/18 13:06:43;;;;;;;4.68;2.20;;;;;;;;;;5121932;27;20031;-74
2022/06/18 13:09:09;;;;;;;;;;;;;;;;;;5123195;27;20031;-76
2022/06/18 13:11:44;;;;;;;4.47;2.33;;;;;;;;;;5107967;28;19907;-79
2022/06/18 13:14:13;;;;;;;3.67;2.08;;;;;;;;;;5110343;28;20038;-79
2022/06/18 13:16:45;;;;;;;3.45;2.10;;;;;;;;;;5107301;28;20023;-75
2022/06/18 13:19:16;;;;;;;10.65;2.75;;;;;;;;;;5107705;28;20532;-72
2022/06/18 13:21:43;;;;;;;2.95;2.38;;;;;;;;;;5107414;28;20136;-73
2022/06/18 13:29:56;;;;;;;3.42;2.35;;;;;;;;;;5115291;27;20047;-71
2022/06/18 13:32:53;;;;;;;7.25;2.53;;;;;;;;;;5103250;28;20166;-74
2022/06/18 13:35:43;;;;;;;14.88;2.50;;;;;;;;;;5115474;27;20413;-72
2022/06/18 13:38:37;;;;;;;3.80;2.30;;;;;;;;;;5030119;28;20045;-72
2022/06/18 13:41:23;;;;;;;4.90;2.60;;;;;;;;;;5037500;28;20414;-73
2022/06/18 13:43:49;;;;;;;3.30;2.00;;;;;;;;;;5030100;28;20453;-72
2022/06/18 13:46:18;;;;;;;2.45;1.95;;;;;;;;;;5034022;28;20505;-73
2022/06/18 13:48:45;;;;;;;4.20;2.30;;;;;;;;;;5032948;28;20124;-71
2022/06/18 13:51:12;;;;;;;5.65;2.15;;;;;;;;;;5032271;28;20614;-73
2022/06/18 13:53:42;;;;;;;4.35;2.38;;;;;;;;;;5031919;28;20041;-71
2022/06/18 13:56:20;;;;;;;3.05;1.98;;;;;;;;;;5034482;28;20124;-73
2022/06/18 13:59:24;;;;;;;4.50;2.20;;;;;;;;;;5031165;28;20387;-74
2022/06/18 14:01:52;;;;;;;25.70;3.38;;;;;;;;;;4972428;28;20042;-73
2022/06/18 14:04:22;;;;;;;2.67;2.08;;;;;;;;;;4980836;28;20053;-72
2022/06/18 14:07:17;;;;;;;5.95;2.17;;;;;;;;;;4974014;28;20104;-71
2022/06/18 14:09:48;;;;;;;3.95;2.17;;;;;;;;;;4930377;29;20032;-73
2022/06/18 14:12:23;;;;;;;6.32;2.20;;;;;;;;;;4931068;29;21595;-75
2022/06/18 14:14:49;;;;;;;3.50;2.33;;;;;;;;;;4950826;28;20077;-73
2022/06/18 14:17:16;;;;;;;3.28;2.10;;;;;;;;;;4972267;28;20165;-73
2022/06/18 14:19:43;;;;;;;2.65;2.28;;;;;;;;;;4987168;28;20035;-74
2022/06/18 14:22:09;;;;;;;3.97;2.13;;;;;;;;;;4979127;28;20117;-72
2022/06/18 14:24:43;;;;;;;2.90;2.20;;;;;;;;;;4974579;28;20420;-77
2022/06/18 14:27:21;;;;;;;4.22;2.13;;;;;;;;;;4973166;28;20420;-78
2022/06/18 14:29:48;;;;;;;5.13;2.42;;;;;;;;;;4984446;28;20038;-75
2022/06/18 14:32:22;;;;;;;2.25;1.90;;;;;;;;;;4974386;28;20026;-77
2022/06/18 14:35:03;;;;;;;5.95;2.50;;;;;;;;;;4954162;28;20051;-73
2022/06/18 14:37:32;;;;;;;6.57;2.60;;;;;;;;;;4962330;28;20404;-73
2022/06/18 14:40:00;;;;;;;3.85;2.25;;;;;;;;;;5007796;28;20160;-74
2022/06/18 14:42:51;;;;;;;14.68;3.42;;;;;;;;;;5005497;28;20575;-73
2022/06/18 14:45:17;;;;;;;4.47;2.30;;;;;;;;;;5010464;28;20472;-72
2022/06/18 14:48:00;;;;;;;2.95;2.10;;;;;;;;;;5116587;27;20107;-73
2022/06/18 14:50:26;;;;;;;5.55;2.30;;;;;;;;;;5114040;28;20031;-72
2022/06/18 14:53:02;;;;;;;3.83;2.33;;;;;;;;;;5113318;28;20102;-73
2022/06/18 14:55:36;;;;;;;5.45;2.58;;;;;;;;;;5114859;27;20020;-81
2022/06/18 14:58:11;;;;;;;4.00;2.20;;;;;;;;;;5111628;27;20026;-82
2022/06/18 15:00:40;;;;;;;5.82;2.30;;;;;;;;;;5129217;27;20111;-68
2022/06/18 15:03:25;;;;;;;4.07;2.13;;;;;;;;;;5109487;28;20066;-70
2022/06/18 15:05:55;;;;;;;3.55;2.17;;;;;;;;;;5110185;28;20031;-71
2022/06/18 15:08:22;;;;;;;2.67;2.00;;;;;;;;;;5118224;27;20047;-70
2022/06/18 15:10:49;;;;;;;6.85;1.92;;;;;;;;;;5123936;27;20067;-73
2022/06/18 15:13:29;;;;;;;;;;;;;;;;;;;;;
2022/06/18 15:16:18;;;;;;;3.78;2.30;;;;;;;;;;5112335;28;20472;-74
2022/06/18 15:21:49;;;;;;;4.78;2.30;;;;;;;;;;5114118;28;20396;-73
2022/06/18 15:27:05;;;;;;;3.85;2.00;;;;;;;;;;5052620;28;20025;-73
2022/06/18 15:29:36;;;;;;;5.38;2.22;;;;;;;;;;5050615;28;20045;-73
2022/06/18 15:32:14;;;;;;;9.95;2.60;;;;;;;;;;5049069;28;20072;-72
2022/06/18 15:34:41;;;;;;;3.78;2.00;;;;;;;;;;5020518;28;20107;-73
2022/06/18 15:37:29;;;;;;;9.13;2.30;;;;;;;;;;5011806;28;20037;-72
2022/06/18 15:40:00;;;;;;;5.47;2.05;;;;;;;;;;5015346;28;20041;-75
2022/06/18 15:42:56;;;;;;;8.98;2.30;;;;;;;;;;5008380;28;20026;-72
2022/06/18 15:45:28;;;;;;;5.50;2.60;;;;;;;;;;5003935;28;20518;-75